createdAt,value
2022-10-22T00:00:58.727Z,47.63
2022-10-22T00:01:58.688Z,47.74
2022-10-22T00:02:58.888Z,50.22
2022-10-22T00:03:58.663Z,50.11
2022-10-22T00:04:58.654Z,50.17
2022-10-22T00:05:58.640Z,50.17
2022-10-22T00:06:58.625Z,50.11
2022-10-22T00:07:58.615Z,50.22
2022-10-22T00:08:58.645Z,50.17
2022-10-22T00:09:58.586Z,50.11
2022-10-22T00:10:58.573Z,50.17
2022-10-22T00:11:58.560Z,50.11
2022-10-22T00:12:58.544Z,50.11
2022-10-22T00:13:58.534Z,50.22
2022-10-22T00:14:58.531Z,50.22
2022-10-22T00:15:58.507Z,50.11
2022-10-22T00:16:58.516Z,50.22
2022-10-22T00:17:58.475Z,50.17
2022-10-22T00:18:58.469Z,50.22
2022-10-22T00:19:58.454Z,50.17
2022-10-22T00:20:58.441Z,50.11
2022-10-22T00:21:58.443Z,50.11
2022-10-22T00:22:58.421Z,50.27
2022-10-22T00:23:58.405Z,50.17
2022-10-22T00:24:58.395Z,50.17
2022-10-22T00:25:58.377Z,50.17
2022-10-22T00:26:58.364Z,50.17
2022-10-22T00:27:58.344Z,50.17
2022-10-22T00:28:58.335Z,50.06
2022-10-22T00:29:58.330Z,50.11
2022-10-22T00:30:58.318Z,50.17
2022-10-22T00:31:58.297Z,50.17
2022-10-22T00:32:58.317Z,50.17
2022-10-22T00:33:58.273Z,50.22
2022-10-22T00:34:58.260Z,50.33
2022-10-22T00:35:58.247Z,50.11
2022-10-22T00:36:58.228Z,50.22
2022-10-22T00:37:58.222Z,50.22
2022-10-22T00:38:58.208Z,50.22
2022-10-22T00:39:58.194Z,50.22
2022-10-22T00:40:58.207Z,45.04
2022-10-22T00:41:58.169Z,50.17
2022-10-22T00:42:58.162Z,50.22
2022-10-22T00:43:58.140Z,50.17
2022-10-22T00:44:58.126Z,50.17
2022-10-22T00:45:58.111Z,50.11
2022-10-22T00:46:58.102Z,50.11
2022-10-22T00:47:58.085Z,47.57
2022-10-22T00:48:58.096Z,47.63
2022-10-22T00:49:58.092Z,50.17
2022-10-22T00:50:58.051Z,50.27
2022-10-22T00:51:58.033Z,50.17
2022-10-22T00:52:58.020Z,50.22
2022-10-22T00:53:58.009Z,47.68
2022-10-22T00:54:57.995Z,47.63
2022-10-22T00:55:57.989Z,50.17
2022-10-22T00:56:57.972Z,47.63
2022-10-22T00:57:57.963Z,47.63
2022-10-22T00:58:57.969Z,50.06
2022-10-22T00:59:57.930Z,47.63
2022-10-22T01:00:57.976Z,50.11
2022-10-22T01:01:57.901Z,50.17
2022-10-22T01:02:57.888Z,47.57
2022-10-22T01:03:57.878Z,47.57
2022-10-22T01:04:57.887Z,47.68
2022-10-22T01:05:57.850Z,50.06
2022-10-22T01:06:57.840Z,47.68
2022-10-22T01:07:57.893Z,47.63
2022-10-22T01:08:57.935Z,50.17
2022-10-22T01:09:57.801Z,47.63
2022-10-22T01:10:57.785Z,50.17
2022-10-22T01:11:57.776Z,47.63
2022-10-22T01:12:57.771Z,45.09
2022-10-22T01:13:57.747Z,47.63
2022-10-22T01:14:57.733Z,50.22
2022-10-22T01:15:57.721Z,47.74
2022-10-22T01:16:57.706Z,50.17
2022-10-22T01:17:57.694Z,50.11
2022-10-22T01:18:57.683Z,47.52
2022-10-22T01:19:57.667Z,50.17
2022-10-22T01:20:57.685Z,47.57
2022-10-22T01:21:57.646Z,47.68
2022-10-22T01:22:57.628Z,50.11
2022-10-22T01:23:57.619Z,50.17
2022-10-22T01:24:57.599Z,47.79
2022-10-22T01:25:57.628Z,45.04
2022-10-22T01:26:57.579Z,47.68
2022-10-22T01:27:57.564Z,47.63
2022-10-22T01:28:57.548Z,47.63
2022-10-22T01:29:57.545Z,50.06
2022-10-22T01:30:57.527Z,47.74
2022-10-22T01:31:57.512Z,47.68
2022-10-22T01:32:57.503Z,50.11
2022-10-22T01:33:57.480Z,47.63
2022-10-22T01:34:57.477Z,47.63
2022-10-22T01:35:57.457Z,47.63
2022-10-22T01:36:57.489Z,47.68
2022-10-22T01:37:57.431Z,50.11
2022-10-22T01:38:57.415Z,50.17
2022-10-22T01:39:57.406Z,47.63
2022-10-22T01:40:57.408Z,47.68
2022-10-22T01:41:57.384Z,47.63
2022-10-22T01:42:57.370Z,45.09
2022-10-22T01:43:57.354Z,47.57
2022-10-22T01:44:57.340Z,47.57
2022-10-22T01:45:57.330Z,47.57
2022-10-22T01:46:57.324Z,47.57
2022-10-22T01:47:57.303Z,47.68
2022-10-22T01:48:57.285Z,47.68
2022-10-22T01:49:57.279Z,50.22
2022-10-22T01:50:57.261Z,50.22
2022-10-22T01:51:57.251Z,47.57
2022-10-22T01:52:57.260Z,50.11
2022-10-22T01:53:57.229Z,47.68
2022-10-22T01:54:57.212Z,47.74
2022-10-22T01:55:57.197Z,47.63
2022-10-22T01:56:57.187Z,47.63
2022-10-22T01:57:57.174Z,47.57
2022-10-22T01:58:57.158Z,50.22
2022-10-22T01:59:57.145Z,47.74
2022-10-22T02:00:57.261Z,47.68
2022-10-22T02:01:57.117Z,47.74
2022-10-22T02:02:57.105Z,50.17
2022-10-22T02:03:57.096Z,47.68
2022-10-22T02:04:57.085Z,50.27
2022-10-22T02:05:57.077Z,47.57
2022-10-22T02:06:57.054Z,50.27
2022-10-22T02:07:57.039Z,47.63
2022-10-22T02:08:57.144Z,47.57
2022-10-22T02:09:57.013Z,47.63
2022-10-22T02:10:57.002Z,50.17
2022-10-22T02:11:57.037Z,47.68
2022-10-22T02:12:56.977Z,47.57
2022-10-22T02:13:56.963Z,47.57
2022-10-22T02:14:56.947Z,47.57
2022-10-22T02:15:56.931Z,47.63
2022-10-22T02:16:56.920Z,47.63
2022-10-22T02:17:56.913Z,45.09
2022-10-22T02:18:56.892Z,47.68
2022-10-22T02:19:56.884Z,45.09
2022-10-22T02:20:56.898Z,47.63
2022-10-22T02:21:56.858Z,47.57
2022-10-22T02:22:56.849Z,47.68
2022-10-22T02:23:56.832Z,44.98
2022-10-22T02:24:56.844Z,47.63
2022-10-22T02:25:56.807Z,47.52
2022-10-22T02:26:56.789Z,47.63
2022-10-22T02:27:56.780Z,47.63
2022-10-22T02:28:56.766Z,47.57
2022-10-22T02:29:56.750Z,47.74
2022-10-22T02:30:56.735Z,47.57
2022-10-22T02:31:56.726Z,47.57
2022-10-22T02:32:56.713Z,45.09
2022-10-22T02:33:56.701Z,47.57
2022-10-22T02:34:56.684Z,47.57
2022-10-22T02:35:56.670Z,47.63
2022-10-22T02:36:56.662Z,47.68
2022-10-22T02:37:56.649Z,47.57
2022-10-22T02:38:56.636Z,47.68
2022-10-22T02:39:56.619Z,47.63
2022-10-22T02:40:56.632Z,47.63
2022-10-22T02:41:56.596Z,47.63
2022-10-22T02:42:56.586Z,45.09
2022-10-22T02:43:56.566Z,47.68
2022-10-22T02:44:56.553Z,47.57
2022-10-22T02:45:56.539Z,47.57
2022-10-22T02:46:56.527Z,47.68
2022-10-22T02:47:56.523Z,47.57
2022-10-22T02:48:56.502Z,47.63
2022-10-22T02:49:56.488Z,45.04
2022-10-22T02:50:56.477Z,47.57
2022-10-22T02:51:56.462Z,47.63
2022-10-22T02:52:56.450Z,47.63
2022-10-22T02:53:56.436Z,47.57
2022-10-22T02:54:56.424Z,47.63
2022-10-22T02:55:56.408Z,45.04
2022-10-22T02:56:56.424Z,47.74
2022-10-22T02:57:56.386Z,47.68
2022-10-22T02:58:56.372Z,47.63
2022-10-22T02:59:56.362Z,47.63
2022-10-22T03:00:56.359Z,47.63
2022-10-22T03:01:56.332Z,50.17
2022-10-22T03:02:56.320Z,47.57
2022-10-22T03:03:56.309Z,47.63
2022-10-22T03:04:56.293Z,47.57
2022-10-22T03:05:56.279Z,45.09
2022-10-22T03:06:56.265Z,45.14
2022-10-22T03:07:56.259Z,47.63
2022-10-22T03:08:56.269Z,47.63
2022-10-22T03:09:56.236Z,45.14
2022-10-22T03:10:56.213Z,47.74
2022-10-22T03:11:56.201Z,47.52
2022-10-22T03:12:56.212Z,47.68
2022-10-22T03:13:56.184Z,47.68
2022-10-22T03:14:56.162Z,45.14
2022-10-22T03:15:56.159Z,47.68
2022-10-22T03:16:56.141Z,45.04
2022-10-22T03:17:56.125Z,50.11
2022-10-22T03:18:56.112Z,45.20
2022-10-22T03:19:56.093Z,47.68
2022-10-22T03:20:56.086Z,47.63
2022-10-22T03:21:56.067Z,47.74
2022-10-22T03:22:56.054Z,47.63
2022-10-22T03:23:56.042Z,47.57
2022-10-22T03:24:56.039Z,50.17
2022-10-22T03:25:56.035Z,47.57
2022-10-22T03:26:56.008Z,47.52
2022-10-22T03:27:55.992Z,45.09
2022-10-22T03:28:56.000Z,45.14
2022-10-22T03:29:55.965Z,45.14
2022-10-22T03:30:55.952Z,47.68
2022-10-22T03:31:55.940Z,47.57
2022-10-22T03:32:55.926Z,47.63
2022-10-22T03:33:55.912Z,47.57
2022-10-22T03:34:55.923Z,47.63
2022-10-22T03:35:55.883Z,47.68
2022-10-22T03:36:55.875Z,47.63
2022-10-22T03:37:55.865Z,47.57
2022-10-22T03:38:55.846Z,47.63
2022-10-22T03:39:55.838Z,47.74
2022-10-22T03:40:55.824Z,47.63
2022-10-22T03:41:55.807Z,45.09
2022-10-22T03:42:55.790Z,47.63
2022-10-22T03:43:55.784Z,45.09
2022-10-22T03:44:55.795Z,47.68
2022-10-22T03:45:55.753Z,47.57
2022-10-22T03:46:58.715Z,47.47
2022-10-22T03:47:55.727Z,45.09
2022-10-22T03:48:55.715Z,47.52
2022-10-22T03:49:55.718Z,47.68
2022-10-22T03:50:55.689Z,47.63
2022-10-22T03:51:55.682Z,45.14
2022-10-22T03:52:55.670Z,45.41
2022-10-22T03:53:55.648Z,47.57
2022-10-22T03:54:55.636Z,50.17
2022-10-22T03:55:55.624Z,47.57
2022-10-22T03:56:55.610Z,50.06
2022-10-22T03:57:55.598Z,47.63
2022-10-22T03:58:55.580Z,47.63
2022-10-22T03:59:55.573Z,47.63
2022-10-22T04:00:55.615Z,47.63
2022-10-22T04:01:55.542Z,47.63
2022-10-22T04:02:55.534Z,45.09
2022-10-22T04:03:55.521Z,47.63
2022-10-22T04:04:55.508Z,45.14
2022-10-22T04:05:55.493Z,47.57
2022-10-22T04:06:55.486Z,45.14
2022-10-22T04:07:55.470Z,50.11
2022-10-22T04:08:55.468Z,45.04
2022-10-22T04:09:55.438Z,47.63
2022-10-22T04:10:55.426Z,47.57
2022-10-22T04:11:55.412Z,42.55
2022-10-22T04:12:55.403Z,47.68
2022-10-22T04:13:55.398Z,45.04
2022-10-22T04:14:55.372Z,50.17
2022-10-22T04:15:55.361Z,45.09
2022-10-22T04:16:55.373Z,45.09
2022-10-22T04:17:55.337Z,45.04
2022-10-22T04:18:55.320Z,47.63
2022-10-22T04:19:55.306Z,47.63
2022-10-22T04:20:55.299Z,47.68
2022-10-22T04:21:55.282Z,45.09
2022-10-22T04:22:55.267Z,45.09
2022-10-22T04:23:55.262Z,45.20
2022-10-22T04:24:55.250Z,47.57
2022-10-22T04:25:55.233Z,47.63
2022-10-22T04:26:55.217Z,47.52
2022-10-22T04:27:55.206Z,45.20
2022-10-22T04:28:55.189Z,47.63
2022-10-22T04:29:55.181Z,47.68
2022-10-22T04:30:55.165Z,47.63
2022-10-22T04:31:55.152Z,47.68
2022-10-22T04:32:55.168Z,47.57
2022-10-22T04:33:55.125Z,45.14
2022-10-22T04:34:55.110Z,47.57
2022-10-22T04:35:55.099Z,45.14
2022-10-22T04:36:55.085Z,47.63
2022-10-22T04:37:55.072Z,47.63
2022-10-22T04:38:55.058Z,47.57
2022-10-22T04:39:57.965Z,45.14
2022-10-22T04:40:55.032Z,45.09
2022-10-22T04:41:55.022Z,45.04
2022-10-22T04:42:55.009Z,45.04
2022-10-22T04:43:54.993Z,45.04
2022-10-22T04:44:54.982Z,45.04
2022-10-22T04:45:54.975Z,45.14
2022-10-22T04:46:54.960Z,45.09
2022-10-22T04:47:54.944Z,45.09
2022-10-22T04:48:54.952Z,45.14
2022-10-22T04:49:54.919Z,45.04
2022-10-22T04:50:54.905Z,45.09
2022-10-22T04:51:54.888Z,45.04
2022-10-22T04:52:54.872Z,45.25
2022-10-22T04:53:54.866Z,45.04
2022-10-22T04:54:54.847Z,45.09
2022-10-22T04:55:54.834Z,45.04
2022-10-22T04:56:54.824Z,45.04
2022-10-22T04:57:54.808Z,45.14
2022-10-22T04:58:54.795Z,42.61
2022-10-22T04:59:54.779Z,45.09
2022-10-22T05:00:54.856Z,45.14
2022-10-22T05:01:54.758Z,45.09
2022-10-22T05:02:54.750Z,45.04
2022-10-22T05:03:54.730Z,47.68
2022-10-22T05:04:54.742Z,47.68
2022-10-22T05:05:54.704Z,45.14
2022-10-22T05:06:54.696Z,45.14
2022-10-22T05:07:54.683Z,45.09
2022-10-22T05:08:54.721Z,45.20
2022-10-22T05:09:54.655Z,45.14
2022-10-22T05:10:54.646Z,42.61
2022-10-22T05:11:54.625Z,42.55
2022-10-22T05:12:54.613Z,47.63
2022-10-22T05:13:54.598Z,42.44
2022-10-22T05:14:54.596Z,50.22
2022-10-22T05:15:54.579Z,45.09
2022-10-22T05:16:54.571Z,45.09
2022-10-22T05:17:54.544Z,45.20
2022-10-22T05:18:54.536Z,44.98
2022-10-22T05:19:54.524Z,45.09
2022-10-22T05:20:54.546Z,45.09
2022-10-22T05:21:54.492Z,45.09
2022-10-22T05:22:54.481Z,45.14
2022-10-22T05:23:54.469Z,45.04
2022-10-22T05:24:54.461Z,45.14
2022-10-22T05:25:54.444Z,47.57
2022-10-22T05:26:54.431Z,45.14
2022-10-22T05:27:57.215Z,45.14
2022-10-22T05:28:54.401Z,44.98
2022-10-22T05:29:54.393Z,47.68
2022-10-22T05:30:54.385Z,45.20
2022-10-22T05:31:54.371Z,45.04
2022-10-22T05:32:54.352Z,45.09
2022-10-22T05:33:54.340Z,44.98
2022-10-22T05:34:54.323Z,47.63
2022-10-22T05:35:54.324Z,45.04
2022-10-22T05:36:54.335Z,45.09
2022-10-22T05:37:54.295Z,45.25
2022-10-22T05:38:54.273Z,44.98
2022-10-22T05:40:01.870Z,45.14
2022-10-22T05:40:55.276Z,44.98
2022-10-22T05:41:54.241Z,44.98
2022-10-22T05:42:54.221Z,45.09
2022-10-22T05:43:54.204Z,45.09
2022-10-22T05:44:54.195Z,44.98
2022-10-22T05:45:54.180Z,45.14
2022-10-22T05:46:54.168Z,45.31
2022-10-22T05:47:54.154Z,42.61
2022-10-22T05:48:54.149Z,45.09
2022-10-22T05:49:54.133Z,45.04
2022-10-22T05:50:54.119Z,45.04
2022-10-22T05:51:54.108Z,42.50
2022-10-22T05:52:54.113Z,42.55
2022-10-22T05:53:54.078Z,45.04
2022-10-22T05:54:54.064Z,45.04
2022-10-22T05:55:54.064Z,45.09
2022-10-22T05:56:54.052Z,45.04
2022-10-22T05:57:54.026Z,40.12
2022-10-22T05:58:54.078Z,42.44
2022-10-22T05:59:53.997Z,44.98
2022-10-22T06:00:54.000Z,45.09
2022-10-22T06:01:54.018Z,45.09
2022-10-22T06:02:53.959Z,45.09
2022-10-22T06:03:53.948Z,45.04
2022-10-22T06:04:53.931Z,42.50
2022-10-22T06:05:53.921Z,42.55
2022-10-22T06:06:53.906Z,45.09
2022-10-22T06:07:53.894Z,42.50
2022-10-22T06:08:53.938Z,45.14
2022-10-22T06:09:53.891Z,45.04
2022-10-22T06:10:53.854Z,45.09
2022-10-22T06:11:53.841Z,42.55
2022-10-22T06:12:53.824Z,42.50
2022-10-22T06:13:53.813Z,45.09
2022-10-22T06:14:53.802Z,45.09
2022-10-22T06:15:53.787Z,45.09
2022-10-22T06:16:53.774Z,42.50
2022-10-22T06:17:53.761Z,42.50
2022-10-22T06:18:53.745Z,45.25
2022-10-22T06:19:53.785Z,42.55
2022-10-22T06:20:53.729Z,42.61
2022-10-22T06:21:53.709Z,45.14
2022-10-22T06:22:53.697Z,45.14
2022-10-22T06:23:53.679Z,42.50
2022-10-22T06:24:53.691Z,42.55
2022-10-22T06:25:53.657Z,40.18
2022-10-22T06:26:53.642Z,45.04
2022-10-22T06:27:53.631Z,50.17
2022-10-22T06:28:53.616Z,45.04
2022-10-22T06:29:53.604Z,42.50
2022-10-22T06:30:53.597Z,42.55
2022-10-22T06:31:53.576Z,42.55
2022-10-22T06:32:53.568Z,45.04
2022-10-22T06:33:53.548Z,42.55
2022-10-22T06:34:53.544Z,45.04
2022-10-22T06:35:53.525Z,45.09
2022-10-22T06:36:53.518Z,40.23
2022-10-22T06:37:53.508Z,42.55
2022-10-22T06:38:53.495Z,42.50
2022-10-22T06:39:53.471Z,42.50
2022-10-22T06:40:53.482Z,40.18
2022-10-22T06:41:53.445Z,45.04
2022-10-22T06:42:53.434Z,45.14
2022-10-22T06:43:53.420Z,47.63
2022-10-22T06:44:53.488Z,42.50
2022-10-22T06:45:53.393Z,45.14
2022-10-22T06:46:53.375Z,42.50
2022-10-22T06:47:53.368Z,42.50
2022-10-22T06:48:53.362Z,42.55
2022-10-22T06:49:53.346Z,45.09
2022-10-22T06:50:53.328Z,42.50
2022-10-22T06:51:53.318Z,45.09
2022-10-22T06:52:53.301Z,45.04
2022-10-22T06:53:53.294Z,42.44
2022-10-22T06:54:53.276Z,42.50
2022-10-22T06:55:53.269Z,42.55
2022-10-22T06:56:53.272Z,42.55
2022-10-22T06:57:53.235Z,42.55
2022-10-22T06:58:53.231Z,45.09
2022-10-22T06:59:53.206Z,45.04
2022-10-22T07:00:53.256Z,42.61
2022-10-22T07:01:53.195Z,40.23
2022-10-22T07:02:56.498Z,42.61
2022-10-22T07:03:53.158Z,42.44
2022-10-22T07:04:53.148Z,42.44
2022-10-22T07:05:53.144Z,42.50
2022-10-22T07:06:53.119Z,45.09
2022-10-22T07:07:53.107Z,42.66
2022-10-22T07:08:53.202Z,42.61
2022-10-22T07:09:53.077Z,42.55
2022-10-22T07:10:53.070Z,42.61
2022-10-22T07:11:53.059Z,42.55
2022-10-22T07:12:53.066Z,45.04
2022-10-22T07:13:53.032Z,42.55
2022-10-22T07:14:53.019Z,45.20
2022-10-22T07:15:53.000Z,47.57
2022-10-22T07:16:52.991Z,42.55
2022-10-22T07:17:52.986Z,42.55
2022-10-22T07:18:52.971Z,45.09
2022-10-22T07:19:52.951Z,42.50
2022-10-22T07:20:52.938Z,42.55
2022-10-22T07:21:52.937Z,40.12
2022-10-22T07:22:52.911Z,42.50
2022-10-22T07:23:52.894Z,42.55
2022-10-22T07:24:52.891Z,42.50
2022-10-22T07:25:52.904Z,42.50
2022-10-22T07:26:52.858Z,43.90
2022-10-22T07:27:52.849Z,45.20
2022-10-22T07:28:52.856Z,42.50
2022-10-22T07:29:52.817Z,42.61
2022-10-22T07:30:52.805Z,42.50
2022-10-22T07:31:52.796Z,42.55
2022-10-22T07:32:52.777Z,42.50
2022-10-22T07:33:52.768Z,42.55
2022-10-22T07:34:52.770Z,42.44
2022-10-22T07:35:52.752Z,45.14
2022-10-22T07:36:52.723Z,40.18
2022-10-22T07:37:52.712Z,40.12
2022-10-22T07:38:52.698Z,45.14
2022-10-22T07:39:52.690Z,42.50
2022-10-22T07:40:52.671Z,45.04
2022-10-22T07:41:52.658Z,42.44
2022-10-22T07:42:52.649Z,42.55
2022-10-22T07:43:52.632Z,42.50
2022-10-22T07:44:52.652Z,42.50
2022-10-22T07:45:52.607Z,45.09
2022-10-22T07:46:52.600Z,42.50
2022-10-22T07:47:52.581Z,42.50
2022-10-22T07:48:52.576Z,42.50
2022-10-22T07:49:52.556Z,42.55
2022-10-22T07:50:52.543Z,42.66
2022-10-22T07:51:52.534Z,42.50
2022-10-22T07:52:53.838Z,42.61
2022-10-22T07:53:52.500Z,42.50
2022-10-22T07:54:52.492Z,45.14
2022-10-22T07:55:52.488Z,45.20
2022-10-22T07:56:52.468Z,42.50
2022-10-22T07:57:52.450Z,42.50
2022-10-22T07:58:52.560Z,42.55
2022-10-22T07:59:52.424Z,42.55
2022-10-22T08:00:52.432Z,42.50
2022-10-22T08:01:52.396Z,42.55
2022-10-22T08:02:52.384Z,42.50
2022-10-22T08:03:52.371Z,42.55
2022-10-22T08:04:52.361Z,42.44
2022-10-22T08:05:52.344Z,42.50
2022-10-22T08:06:52.330Z,40.23
2022-10-22T08:07:52.316Z,42.55
2022-10-22T08:08:52.362Z,42.66
2022-10-22T08:09:52.296Z,42.44
2022-10-22T08:10:52.303Z,42.61
2022-10-22T08:11:52.266Z,42.50
2022-10-22T08:12:52.252Z,42.61
2022-10-22T08:13:52.240Z,42.61
2022-10-22T08:14:52.226Z,42.61
2022-10-22T08:15:53.686Z,42.50
2022-10-22T08:16:52.228Z,38.99
2022-10-22T08:17:52.188Z,40.23
2022-10-22T08:18:52.172Z,42.66
2022-10-22T08:19:52.167Z,42.61
2022-10-22T08:20:52.149Z,42.55
2022-10-22T08:21:52.134Z,42.50
2022-10-22T08:22:52.131Z,42.50
2022-10-22T08:23:52.123Z,42.55
2022-10-22T08:24:52.098Z,42.55
2022-10-22T08:25:52.086Z,40.12
2022-10-22T08:26:52.073Z,42.55
2022-10-22T08:27:52.054Z,40.12
2022-10-22T08:28:52.045Z,42.55
2022-10-22T08:29:52.032Z,42.44
2022-10-22T08:30:52.020Z,40.12
2022-10-22T08:31:52.006Z,42.50
2022-10-22T08:32:54.015Z,42.50
2022-10-22T08:33:51.987Z,42.50
2022-10-22T08:34:51.969Z,42.44
2022-10-22T08:35:51.952Z,42.55
2022-10-22T08:36:51.940Z,42.55
2022-10-22T08:37:51.932Z,45.20
2022-10-22T08:38:51.915Z,40.18
2022-10-22T08:39:51.904Z,42.55
2022-10-22T08:40:51.889Z,42.55
2022-10-22T08:41:51.872Z,42.50
2022-10-22T08:42:51.860Z,42.55
2022-10-22T08:43:51.855Z,42.44
2022-10-22T08:44:51.835Z,42.61
2022-10-22T08:45:51.839Z,42.50
2022-10-22T08:46:51.832Z,42.55
2022-10-22T08:47:51.802Z,40.99
2022-10-22T08:48:51.804Z,42.55
2022-10-22T08:49:51.773Z,42.50
2022-10-22T08:50:51.754Z,40.18
2022-10-22T08:51:51.742Z,42.50
2022-10-22T08:52:51.736Z,45.14
2022-10-22T08:53:51.717Z,42.55
2022-10-22T08:54:51.702Z,42.50
2022-10-22T08:55:51.697Z,42.55
2022-10-22T08:56:51.681Z,42.50
2022-10-22T08:57:52.545Z,42.50
2022-10-22T08:58:51.651Z,42.44
2022-10-22T08:59:51.636Z,40.23
2022-10-22T09:00:51.623Z,42.50
2022-10-22T09:01:51.610Z,42.44
2022-10-22T09:02:51.607Z,42.55
2022-10-22T09:03:51.585Z,42.50
2022-10-22T09:04:51.598Z,42.44
2022-10-22T09:06:53.603Z,42.55
2022-10-22T09:07:51.536Z,40.18
2022-10-22T09:08:51.547Z,42.55
2022-10-22T09:09:51.507Z,42.61
2022-10-22T09:10:51.501Z,42.55
2022-10-22T09:11:51.480Z,40.12
2022-10-22T09:12:51.475Z,42.55
2022-10-22T09:13:51.450Z,42.55
2022-10-22T09:14:51.444Z,42.50
2022-10-22T09:15:51.426Z,40.18
2022-10-22T09:16:51.417Z,42.50
2022-10-22T09:17:51.400Z,40.18
2022-10-22T09:18:51.388Z,42.55
2022-10-22T09:19:51.377Z,42.50
2022-10-22T09:20:51.386Z,40.18
2022-10-22T09:21:51.356Z,40.18
2022-10-22T09:22:51.337Z,42.61
2022-10-22T09:23:51.327Z,42.50
2022-10-22T09:24:51.310Z,42.50
2022-10-22T09:25:51.298Z,42.50
2022-10-22T09:26:51.282Z,42.50
2022-10-22T09:27:51.270Z,40.18
2022-10-22T09:28:51.257Z,40.18
2022-10-22T09:29:51.247Z,42.50
2022-10-22T09:30:51.303Z,40.12
2022-10-22T09:31:51.218Z,40.18
2022-10-22T09:32:51.204Z,42.55
2022-10-22T09:33:51.201Z,40.18
2022-10-22T09:34:51.186Z,42.55
2022-10-22T09:35:51.170Z,40.12
2022-10-22T09:36:51.178Z,40.23
2022-10-22T09:37:51.144Z,40.18
2022-10-22T09:38:51.129Z,42.55
2022-10-22T09:39:51.117Z,42.44
2022-10-22T09:40:51.100Z,42.55
2022-10-22T09:41:51.091Z,42.50
2022-10-22T09:42:51.080Z,40.18
2022-10-22T09:43:51.063Z,42.50
2022-10-22T09:44:51.060Z,40.12
2022-10-22T09:45:51.039Z,42.50
2022-10-22T09:46:51.029Z,42.50
2022-10-22T09:48:01.467Z,40.12
2022-10-22T09:48:52.033Z,42.55
2022-10-22T09:49:50.986Z,42.50
2022-10-22T09:50:50.978Z,42.50
2022-10-22T09:51:50.959Z,42.50
2022-10-22T09:52:50.975Z,42.66
2022-10-22T09:53:50.936Z,40.12
2022-10-22T09:54:50.935Z,42.55
2022-10-22T09:55:50.957Z,40.28
2022-10-22T09:56:50.891Z,40.12
2022-10-22T09:57:50.922Z,40.12
2022-10-22T09:58:50.870Z,42.55
2022-10-22T09:59:50.855Z,40.28
2022-10-22T10:00:50.849Z,40.28
2022-10-22T10:01:50.831Z,42.61
2022-10-22T10:02:50.858Z,40.12
2022-10-22T10:03:50.807Z,40.23
2022-10-22T10:04:50.793Z,42.50
2022-10-22T10:05:50.785Z,40.23
2022-10-22T10:06:50.768Z,42.44
2022-10-22T10:07:50.757Z,40.23
2022-10-22T10:08:50.881Z,40.12
2022-10-22T10:09:50.728Z,40.12
2022-10-22T10:10:50.713Z,40.28
2022-10-22T10:11:50.704Z,40.18
2022-10-22T10:12:50.690Z,40.23
2022-10-22T10:13:50.695Z,40.12
2022-10-22T10:14:50.667Z,40.18
2022-10-22T10:15:50.659Z,40.18
2022-10-22T10:16:50.637Z,40.23
2022-10-22T10:17:50.643Z,40.23
2022-10-22T10:18:50.622Z,42.50
2022-10-22T10:19:50.599Z,42.55
2022-10-22T10:20:50.582Z,40.23
2022-10-22T10:21:50.572Z,40.12
2022-10-22T10:22:50.558Z,42.44
2022-10-22T10:23:50.547Z,40.18
2022-10-22T10:24:50.559Z,40.18
2022-10-22T10:25:50.525Z,42.55
2022-10-22T10:26:50.506Z,40.28
2022-10-22T10:27:50.494Z,40.28
2022-10-22T10:28:50.478Z,42.55
2022-10-22T10:29:50.472Z,40.18
2022-10-22T10:30:50.454Z,40.23
2022-10-22T10:31:50.442Z,40.18
2022-10-22T10:32:50.428Z,42.50
2022-10-22T10:33:50.414Z,40.23
2022-10-22T10:34:50.405Z,42.50
2022-10-22T10:35:50.392Z,42.55
2022-10-22T10:36:50.376Z,40.28
2022-10-22T10:37:50.393Z,40.18
2022-10-22T10:38:50.356Z,40.12
2022-10-22T10:39:50.334Z,40.12
2022-10-22T10:40:50.352Z,45.04
2022-10-22T10:41:50.309Z,45.14
2022-10-22T10:42:50.324Z,42.55
2022-10-22T10:43:50.292Z,42.50
2022-10-22T10:44:50.268Z,42.39
2022-10-22T10:45:53.495Z,40.39
2022-10-22T10:46:50.250Z,42.50
2022-10-22T10:47:50.237Z,42.55
2022-10-22T10:48:50.224Z,42.55
2022-10-22T10:49:50.205Z,42.50
2022-10-22T10:50:50.203Z,42.44
2022-10-22T10:51:50.181Z,42.50
2022-10-22T10:52:50.165Z,42.61
2022-10-22T10:53:50.155Z,42.55
2022-10-22T10:54:50.139Z,42.61
2022-10-22T10:55:50.126Z,42.50
2022-10-22T10:56:50.149Z,42.50
2022-10-22T10:57:50.106Z,42.61
2022-10-22T10:58:50.087Z,42.44
2022-10-22T10:59:50.080Z,42.66
2022-10-22T11:00:50.071Z,42.50
2022-10-22T11:01:50.087Z,42.55
2022-10-22T11:02:50.129Z,42.55
2022-10-22T11:03:50.024Z,42.55
2022-10-22T11:04:50.011Z,42.50
2022-10-22T11:05:49.999Z,42.55
2022-10-22T11:06:49.989Z,42.50
2022-10-22T11:07:55.573Z,42.55
2022-10-22T11:08:51.049Z,42.50
2022-10-22T11:09:49.946Z,42.55
2022-10-22T11:10:49.933Z,42.50
2022-10-22T11:11:49.924Z,42.55
2022-10-22T11:12:49.935Z,42.61
2022-10-22T11:13:49.894Z,42.50
2022-10-22T11:14:49.888Z,42.55
2022-10-22T11:15:49.878Z,42.55
2022-10-22T11:16:49.860Z,42.61
2022-10-22T11:17:49.845Z,42.50
2022-10-22T11:18:49.835Z,42.55
2022-10-22T11:19:52.248Z,42.61
2022-10-22T11:20:49.811Z,42.55
2022-10-22T11:21:49.787Z,42.55
2022-10-22T11:23:13.519Z,42.50
2022-10-22T11:23:50.803Z,42.55
2022-10-22T11:24:49.759Z,42.55
2022-10-22T11:25:49.745Z,42.50
2022-10-22T11:26:49.730Z,42.55
2022-10-22T11:27:49.784Z,42.55
2022-10-22T11:28:49.731Z,42.66
2022-10-22T11:29:49.685Z,42.50
2022-10-22T11:30:49.680Z,42.55
2022-10-22T11:31:49.661Z,42.55
2022-10-22T11:32:49.654Z,42.55
2022-10-22T11:33:49.638Z,42.55
2022-10-22T11:34:49.626Z,42.55
2022-10-22T11:35:49.609Z,42.50
2022-10-22T11:36:49.603Z,42.55
2022-10-22T11:37:49.581Z,42.55
2022-10-22T11:38:49.572Z,42.55
2022-10-22T11:39:49.559Z,42.50
2022-10-22T11:40:49.549Z,42.55
2022-10-22T11:41:49.544Z,42.50
2022-10-22T11:42:49.523Z,42.50
2022-10-22T11:43:49.507Z,42.55
2022-10-22T11:44:49.614Z,42.50
2022-10-22T11:45:49.480Z,42.44
2022-10-22T11:46:49.471Z,42.55
2022-10-22T11:47:49.455Z,42.55
2022-10-22T11:48:49.445Z,42.61
2022-10-22T11:49:49.433Z,42.50
2022-10-22T11:50:49.419Z,42.50
2022-10-22T11:51:49.405Z,42.50
2022-10-22T11:52:49.388Z,42.66
2022-10-22T11:53:49.378Z,42.55
2022-10-22T11:54:49.365Z,42.50
2022-10-22T11:55:49.355Z,42.50
2022-10-22T11:56:49.339Z,42.66
2022-10-22T11:57:49.333Z,42.61
2022-10-22T11:58:52.258Z,42.66
2022-10-22T11:59:49.302Z,42.55
2022-10-22T12:00:49.314Z,42.50
2022-10-22T12:01:49.291Z,42.55
2022-10-22T12:02:49.263Z,42.61
2022-10-22T12:03:49.249Z,42.61
2022-10-22T12:04:49.337Z,42.55
2022-10-22T12:05:49.225Z,42.61
2022-10-22T12:06:49.212Z,42.55
2022-10-22T12:07:49.208Z,42.50
2022-10-22T12:08:49.286Z,42.55
2022-10-22T12:09:49.213Z,42.55
2022-10-22T12:10:49.157Z,42.44
2022-10-22T12:11:49.147Z,42.55
2022-10-22T12:12:49.135Z,42.55
2022-10-22T12:13:49.134Z,42.50
2022-10-22T12:14:49.108Z,42.50
2022-10-22T12:15:49.104Z,42.55
2022-10-22T12:16:57.588Z,42.50
2022-10-22T12:17:50.097Z,42.55
2022-10-22T12:18:49.063Z,42.50
2022-10-22T12:19:49.045Z,42.55
2022-10-22T12:20:49.032Z,42.55
2022-10-22T12:21:49.015Z,42.50
2022-10-22T12:22:49.005Z,42.50
2022-10-22T12:23:48.993Z,42.55
2022-10-22T12:24:48.988Z,42.61
2022-10-22T12:25:48.965Z,42.44
2022-10-22T12:26:48.955Z,42.55
2022-10-22T12:27:48.938Z,42.44
2022-10-22T12:28:48.931Z,42.55
2022-10-22T12:29:48.915Z,42.61
2022-10-22T12:30:48.902Z,42.50
2022-10-22T12:31:48.896Z,42.50
2022-10-22T12:32:48.905Z,42.50
2022-10-22T12:33:48.854Z,42.61
2022-10-22T12:35:48.838Z,42.61
2022-10-22T12:36:48.825Z,42.50
2022-10-22T12:37:48.821Z,42.55
2022-10-22T12:38:48.805Z,42.55
2022-10-22T12:39:48.790Z,42.55
2022-10-22T12:40:49.274Z,42.55
2022-10-22T12:41:48.768Z,42.44
2022-10-22T12:42:48.750Z,42.55
2022-10-22T12:43:48.735Z,42.55
2022-10-22T12:44:48.721Z,42.50
2022-10-22T12:45:48.706Z,42.55
2022-10-22T12:46:51.760Z,42.50
2022-10-22T12:47:48.687Z,42.55
2022-10-22T12:48:48.690Z,42.50
2022-10-22T12:49:48.658Z,42.50
2022-10-22T12:50:48.646Z,42.61
2022-10-22T12:51:48.635Z,42.55
2022-10-22T12:52:48.621Z,42.66
2022-10-22T12:53:48.609Z,42.61
2022-10-22T12:54:48.599Z,42.44